Time;durP1;ratioP1;P1;durP2;ratioP2;P2;SDS_P1;SDS_P2;PMS_P1;PMS_P2;Temp;Humidity;BMP_temperature;BMP_pressure;BME280_temperature;BME280_humidity;BME280_pressure;Samples;Min_cycle;Max_cycle;Signal;HPM_P1;HPM_P2
2023/12/13 00:00:37;;;;;;;16.20;9.93;;;;;;;6.99;100.00;101191.50;2097192;28;20183;-61
2023/12/13 00:01:38;;;;;;;15.33;8.87;;;;;;;7.02;100.00;101184.41;2096976;28;20202;-62
2023/12/13 00:02:38;;;;;;;14.67;8.83;;;;;;;6.36;100.00;101070.28;2088388;28;20908;-61
2023/12/13 00:03:39;;;;;;;15.10;8.80;;;;;;;7.04;100.00;101174.56;2088938;28;20285;-61
2023/12/13 00:04:40;;;;;;;13.67;9.07;;;;;;;7.04;100.00;101171.81;2094544;28;20236;-63
2023/12/13 00:05:40;;;;;;;17.70;8.80;;;;;;;7.04;100.00;101177.31;2095893;28;20473;-64
2023/12/13 00:06:41;;;;;;;14.07;8.93;;;;;;;6.73;100.00;101131.28;2096985;28;20206;-64
2023/12/13 00:07:41;;;;;;;13.53;8.20;;;;;;;7.05;100.00;101178.88;2096828;28;20229;-63
2023/12/13 00:08:42;;;;;;;15.60;9.57;;;;;;;6.99;100.00;101168.66;2096664;28;20190;-64
2023/12/13 00:09:42;;;;;;;15.47;9.33;;;;;;;7.05;100.00;101178.88;2088832;28;20195;-63
2023/12/13 00:10:43;;;;;;;16.10;9.23;;;;;;;6.82;100.00;101147.41;2096992;28;20206;-63
2023/12/13 00:11:44;;;;;;;18.87;10.30;;;;;;;7.06;100.00;101185.16;2096664;28;20267;-64
2023/12/13 00:12:44;;;;;;;15.73;9.63;;;;;;;7.09;100.00;101176.91;2090583;28;20618;-64
2023/12/13 00:13:45;;;;;;;14.50;9.97;;;;;;;7.19;100.00;101180.84;2092879;28;20202;-64
2023/12/13 00:14:45;;;;;;;17.07;9.93;;;;;;;7.18;100.00;101182.78;2094009;28;20184;-63
2023/12/13 00:15:45;;;;;;;17.10;10.50;;;;;;;7.25;100.00;101177.28;2089796;28;20385;-64
2023/12/13 00:16:46;;;;;;;15.53;10.10;;;;;;;6.78;100.00;101117.13;2096295;28;20182;-63
2023/12/13 00:17:47;;;;;;;13.97;9.50;;;;;;;7.30;100.00;101184.34;2089205;28;20180;-64
2023/12/13 00:18:47;;;;;;;16.37;10.70;;;;;;;7.32;100.00;101180.03;2096948;28;20667;-63
2023/12/13 00:19:48;;;;;;;19.10;9.70;;;;;;;7.32;100.00;101181.97;2096423;28;20629;-63
2023/12/13 00:20:48;;;;;;;19.30;11.03;;;;;;;7.32;100.00;101171.75;2097194;28;20281;-64
2023/12/13 00:21:49;;;;;;;18.23;9.93;;;;;;;7.32;100.00;101173.72;2096754;28;20214;-64
2023/12/13 00:22:49;;;;;;;15.83;9.63;;;;;;;7.36;100.00;101168.97;2096317;28;20252;-65
2023/12/13 00:23:50;;;;;;;15.77;10.17;;;;;;;7.34;100.00;101171.38;2096443;28;20215;-64
2023/12/13 00:24:50;;;;;;;16.23;10.07;;;;;;;7.41;100.00;101165.81;2096268;28;20187;-64
2023/12/13 00:25:50;;;;;;;16.20;9.57;;;;;;;7.14;100.00;101126.13;2088599;28;20265;-63
2023/12/13 00:26:51;;;;;;;17.30;9.17;;;;;;;7.46;100.00;101177.25;2096891;28;20203;-64
2023/12/13 00:27:52;;;;;;;17.10;9.97;;;;;;;6.65;100.00;101049.84;2096571;28;20521;-64
2023/12/13 00:28:52;;;;;;;13.67;9.30;;;;;;;7.45;100.00;101166.59;2097221;28;20630;-64
2023/12/13 00:29:53;;;;;;;20.93;10.40;;;;;;;7.40;100.00;101153.22;2091970;28;20231;-64
2023/12/13 00:30:53;;;;;;;15.70;9.30;;;;;;;7.46;100.00;101159.91;2092239;28;20203;-63
2023/12/13 00:31:54;;;;;;;15.33;9.03;;;;;;;7.49;100.00;101164.63;2096035;28;20180;-64
2023/12/13 00:32:54;;;;;;;12.30;9.03;;;;;;;7.50;100.00;101167.00;2095763;28;20661;-63
2023/12/13 00:33:55;;;;;;;12.67;8.73;;;;;;;7.54;100.00;101167.75;2089012;28;20183;-63
2023/12/13 00:34:55;;;;;;;15.57;9.53;;;;;;;7.50;100.00;101169.75;2097106;28;20207;-64
2023/12/13 00:35:56;;;;;;;15.07;9.23;;;;;;;7.37;100.00;101142.97;2096922;28;20247;-64
2023/12/13 00:36:56;;;;;;;18.07;10.10;;;;;;;7.40;100.00;101158.72;2096965;28;20199;-63
2023/12/13 00:37:57;;;;;;;15.63;10.67;;;;;;;7.32;100.00;101160.72;2092194;28;20336;-63
2023/12/13 00:38:57;;;;;;;16.93;10.60;;;;;;;7.33;100.00;101164.28;2092129;28;20206;-64
2023/12/13 00:39:58;;;;;;;17.03;10.70;;;;;;;6.99;100.00;101117.09;2096021;28;20178;-64
2023/12/13 00:40:58;;;;;;;14.77;8.97;;;;;;;7.33;100.00;101167.81;2096845;28;20225;-63
2023/12/13 00:41:59;;;;;;;15.57;9.83;;;;;;;7.36;100.00;101164.25;2096982;28;20171;-63
2023/12/13 00:43:01;;;;;;;17.17;9.50;;;;;;;7.35;100.00;101173.72;2096655;28;20202;-64
2023/12/13 00:44:03;;;;;;;15.13;10.17;;;;;;;7.36;100.00;101163.47;2095855;28;20191;-64
2023/12/13 00:45:04;;;;;;;17.20;9.97;;;;;;;7.40;100.00;101165.06;2097176;28;20449;-64
2023/12/13 00:46:05;;;;;;;12.97;8.80;;;;;;;6.28;100.00;100986.16;2091147;28;20997;-63
2023/12/13 00:47:06;;;;;;;13.57;7.70;;;;;;;7.45;100.00;101167.41;2092246;28;20839;-63
2023/12/13 00:48:07;;;;;;;12.07;8.07;;;;;;;7.47;100.00;101166.97;2095775;28;20358;-64
2023/12/13 00:49:08;;;;;;;13.43;8.83;;;;;;;7.49;100.00;101170.91;2096198;28;20612;-63
2023/12/13 00:50:09;;;;;;;17.23;8.67;;;;;;;7.00;100.00;101096.63;2096283;28;20259;-64
2023/12/13 00:51:17;;;;;;;14.83;9.03;;;;;;;7.52;100.00;101200.47;2097636;28;20424;-63
2023/12/13 00:52:18;;;;;;;13.03;8.63;;;;;;;6.97;100.00;101086.38;2088077;28;20241;-63
2023/12/13 00:53:18;;;;;;;14.43;8.00;;;;;;;7.04;100.00;101096.59;2094943;28;20511;-64
2023/12/13 00:54:19;;;;;;;15.53;9.53;;;;;;;7.42;100.00;101154.41;2095104;28;20195;-63
2023/12/13 00:55:19;;;;;;;13.30;8.47;;;;;;;7.45;100.00;101163.84;2096621;28;20202;-63
2023/12/13 00:56:20;;;;;;;13.40;8.23;;;;;;;7.41;100.00;101171.34;2097005;28;20194;-64
2023/12/13 00:57:20;;;;;;;12.47;7.97;;;;;;;7.38;100.00;101172.91;2096597;28;20203;-64
2023/12/13 00:58:21;;;;;;;15.53;7.77;;;;;;;7.41;100.00;101174.09;2096637;28;20184;-64
2023/12/13 00:59:21;;;;;;;19.23;8.67;;;;;;;7.33;100.00;101178.06;2096383;28;20661;-63
2023/12/13 01:00:22;;;;;;;13.07;8.20;;;;;;;7.29;100.00;101175.28;2097153;28;20207;-63
2023/12/13 01:01:23;;;;;;;12.87;7.87;;;;;;;7.25;100.00;101170.97;2096809;28;20201;-64
2023/12/13 01:02:24;;;;;;;14.33;7.80;;;;;;;7.22;100.00;101171.78;2096262;28;20733;-64
2023/12/13 01:03:24;;;;;;;14.03;8.63;;;;;;;7.27;100.00;101163.09;2096267;28;20833;-63
2023/12/13 01:04:25;;;;;;;14.80;8.90;;;;;;;7.27;100.00;101165.84;2091866;28;20684;-64
2023/12/13 01:05:25;;;;;;;14.07;8.70;;;;;;;7.24;100.00;101159.19;2088278;28;20677;-63
2023/12/13 01:06:26;;;;;;;14.47;9.07;;;;;;;7.22;100.00;101158.00;2088092;28;20188;-63
2023/12/13 01:07:26;;;;;;;17.30;9.13;;;;;;;7.22;100.00;101156.00;2088781;28;20588;-63
2023/12/13 01:08:27;;;;;;;13.30;8.43;;;;;;;7.30;100.00;101154.03;2097433;28;20179;-64
2023/12/13 01:09:28;;;;;;;13.63;8.60;;;;;;;7.34;100.00;101143.78;2096780;28;20602;-63
2023/12/13 01:10:28;;;;;;;18.27;8.97;;;;;;;7.38;100.00;101144.56;2096396;28;20818;-63
2023/12/13 01:11:29;;;;;;;14.20;7.97;;;;;;;7.39;100.00;101126.84;2091098;28;20317;-64
2023/12/13 01:12:29;;;;;;;11.93;7.60;;;;;;;7.36;100.00;101133.94;2092577;28;20198;-64
2023/12/13 01:13:29;;;;;;;15.87;9.47;;;;;;;7.33;100.00;101136.72;2095956;28;20195;-64
2023/12/13 01:14:30;;;;;;;12.90;8.27;;;;;;;7.28;100.00;101137.88;2096458;28;20195;-63
2023/12/13 01:15:30;;;;;;;14.30;9.57;;;;;;;7.23;100.00;101163.09;2096479;28;20272;-64
2023/12/13 01:16:33;;;;;;;16.43;8.60;;;;;;;6.91;100.00;101087.97;2097410;28;20182;-63
2023/12/13 01:17:33;;;;;;;14.67;9.43;;;;;;;6.29;100.00;100992.44;2087519;28;20200;-63
2023/12/13 01:18:35;;;;;;;13.83;8.23;;;;;;;7.31;100.00;101136.31;2094851;28;20879;-64
2023/12/13 01:19:35;;;;;;;17.10;8.50;;;;;;;6.96;100.00;101073.78;2093279;28;20684;-63
2023/12/13 01:20:36;;;;;;;16.33;8.80;;;;;;;7.27;100.00;101124.50;2095713;28;20872;-64
2023/12/13 01:21:37;;;;;;;13.10;8.17;;;;;;;7.17;100.00;101119.81;2096463;28;20591;-63
2023/12/13 01:22:37;;;;;;;14.60;8.93;;;;;;;6.64;100.00;101047.47;2095652;28;20178;-63
2023/12/13 01:23:38;;;;;;;15.93;10.00;;;;;;;7.11;100.00;101107.59;2096066;28;20215;-63
2023/12/13 01:24:38;;;;;;;15.70;9.20;;;;;;;6.21;100.00;100969.63;2097540;28;20580;-64
2023/12/13 01:25:39;;;;;;;16.87;9.30;;;;;;;7.28;100.00;101112.31;2096355;28;20215;-63
2023/12/13 01:26:39;;;;;;;15.10;8.67;;;;;;;7.28;100.00;101115.06;2096694;28;20210;-63
2023/12/13 01:27:40;;;;;;;14.40;9.10;;;;;;;7.27;100.00;101119.78;2096120;28;20258;-64
2023/12/13 01:28:41;;;;;;;14.93;8.50;;;;;;;7.26;100.00;101112.69;2096566;28;20198;-63
2023/12/13 01:29:41;;;;;;;11.83;7.77;;;;;;;7.23;100.00;101107.97;2096047;28;20195;-64
2023/12/13 01:30:42;;;;;;;12.03;7.97;;;;;;;7.25;100.00;101104.81;2094142;28;20444;-64
2023/12/13 01:31:42;;;;;;;14.40;7.90;;;;;;;7.24;100.00;101104.06;2087603;28;20218;-64
2023/12/13 01:32:43;;;;;;;13.70;7.53;;;;;;;7.22;100.00;101089.84;2088498;28;20263;-63
2023/12/13 01:33:43;;;;;;;14.13;8.33;;;;;;;7.12;100.00;101087.91;2088166;28;20194;-63
2023/12/13 01:34:44;;;;;;;14.73;8.40;;;;;;;7.14;100.00;101093.03;2095379;28;20199;-64
2023/12/13 01:35:44;;;;;;;13.60;8.57;;;;;;;7.14;100.00;101082.00;2089846;28;20208;-64
2023/12/13 01:36:45;;;;;;;13.87;8.67;;;;;;;7.22;100.00;101091.84;2093099;28;20609;-64
2023/12/13 01:37:45;;;;;;;14.93;8.13;;;;;;;7.22;100.00;101086.34;2096430;28;20289;-63
2023/12/13 01:38:46;;;;;;;11.27;7.50;;;;;;;6.85;100.00;101031.69;2096502;28;20175;-63
2023/12/13 01:39:46;;;;;;;15.67;9.17;;;;;;;7.22;100.00;101087.09;2095197;28;20653;-64
2023/12/13 01:40:50;;;;;;;11.10;7.77;;;;;;;7.20;100.00;101099.72;2089126;28;20190;-64
2023/12/13 01:41:51;;;;;;;16.87;8.87;;;;;;;7.19;100.00;101089.88;2088571;28;20615;-64
2023/12/13 01:42:51;;;;;;;13.20;8.43;;;;;;;7.26;100.00;101078.81;2095274;28;20567;-64
2023/12/13 01:43:52;;;;;;;13.30;8.17;;;;;;;7.32;100.00;101089.03;2096360;28;20611;-63
2023/12/13 01:44:52;;;;;;;14.90;8.70;;;;;;;7.35;100.00;101088.25;2096656;28;20240;-63
2023/12/13 01:45:56;;;;;;;14.43;7.63;;;;;;;6.98;100.00;101019.06;2095955;28;20220;-64
2023/12/13 01:46:57;;;;;;;13.73;8.43;;;;;;;7.39;100.00;101082.72;2096719;28;20205;-64
2023/12/13 01:47:58;;;;;;;12.07;7.80;;;;;;;7.14;100.00;101049.75;2096293;28;20468;-64
2023/12/13 01:49:01;;;;;;;12.97;8.03;;;;;;;6.91;100.00;101018.28;2095414;28;20409;-64
2023/12/13 01:50:02;;;;;;;15.57;8.10;;;;;;;7.28;100.00;101082.75;2088221;28;20426;-63
2023/12/13 01:51:02;;;;;;;14.73;8.43;;;;;;;7.29;100.00;101094.56;2088998;28;20502;-63
2023/12/13 01:52:04;;;;;;;16.57;8.37;;;;;;;7.31;100.00;101086.69;2095190;28;20528;-63
2023/12/13 01:53:06;;;;;;;12.70;7.83;;;;;;;7.32;100.00;101091.78;2096327;28;20204;-63
2023/12/13 01:54:11;;;;;;;14.40;8.53;;;;;;;7.31;100.00;101083.91;2096023;28;20458;-63
2023/12/13 01:55:11;;;;;;;12.67;7.53;;;;;;;7.31;100.00;101090.22;2096808;28;20807;-63
2023/12/13 01:56:12;;;;;;;9.43;7.20;;;;;;;7.28;100.00;101081.97;2092699;28;20465;-64
2023/12/13 01:57:14;;;;;;;14.03;7.53;;;;;;;7.25;100.00;101083.56;2090692;28;20176;-63
2023/12/13 01:58:15;;;;;;;12.63;7.57;;;;;;;7.22;100.00;101075.31;2096188;28;20846;-64
2023/12/13 01:59:16;;;;;;;11.82;7.65;;;;;;;7.17;100.00;101070.97;2095755;28;20178;-63
2023/12/13 02:00:17;;;;;;;14.77;8.00;;;;;;;7.14;100.00;101071.00;2096943;28;20180;-63
2023/12/13 02:01:18;;;;;;;14.07;7.40;;;;;;;7.16;100.00;101069.41;2096350;28;20203;-64
2023/12/13 02:02:18;;;;;;;12.13;8.13;;;;;;;7.14;100.00;101071.78;2096079;28;20230;-63
2023/12/13 02:03:21;;;;;;;12.33;8.10;;;;;;;7.06;100.00;101058.41;2091144;28;20199;-63
2023/12/13 02:04:27;;;;;;;12.23;7.72;;;;;;;7.12;100.00;101079.66;2092280;28;20201;-63
2023/12/13 02:05:30;;;;;;;13.20;6.93;;;;;;;7.11;100.00;101071.78;2096186;28;20207;-64
2023/12/13 02:06:30;;;;;;;13.70;7.90;;;;;;;7.07;100.00;101074.53;2096045;28;20443;-64
2023/12/13 02:07:31;;;;;;;11.17;7.67;;;;;;;7.05;100.00;101073.38;2096169;28;20519;-63
2023/12/13 02:08:32;;;;;;;12.13;7.83;;;;;;;7.05;100.00;101076.13;2096396;28;20188;-64
2023/12/13 02:09:33;;;;;;;11.68;7.65;;;;;;;6.47;100.00;100977.47;2096475;28;20269;-63
2023/12/13 02:10:34;;;;;;;13.30;7.27;;;;;;;7.09;100.00;101060.38;2096502;28;20708;-63
2023/12/13 02:11:35;;;;;;;15.82;8.35;;;;;;;7.09;100.00;101057.63;2096230;28;20259;-63
2023/12/13 02:12:37;;;;;;;13.90;7.47;;;;;;;6.99;100.00;101033.63;2096152;28;20271;-64
2023/12/13 02:13:38;;;;;;;14.38;7.57;;;;;;;7.03;100.00;101043.44;2091593;28;20756;-64
2023/12/13 02:14:39;;;;;;;11.73;7.70;;;;;;;7.03;100.00;101042.69;2091582;28;20206;-64
2023/12/13 02:15:39;;;;;;;12.20;7.70;;;;;;;6.54;100.00;100966.47;2096341;28;20183;-63
2023/12/13 02:16:40;;;;;;;12.80;7.43;;;;;;;7.03;100.00;101054.47;2096615;28;20215;-64
2023/12/13 02:17:51;;;;;;;13.40;7.80;;;;;;;7.04;100.00;101053.31;2095947;28;20266;-63
2023/12/13 02:18:52;;;;;;;12.87;7.37;;;;;;;7.07;100.00;101046.97;2096566;28;20176;-64
2023/12/13 02:19:52;;;;;;;10.37;6.93;;;;;;;7.03;100.00;101048.97;2096084;28;20457;-63
2023/12/13 02:20:53;;;;;;;17.43;10.67;;;;;;;7.00;100.00;101052.53;2096680;28;20695;-63
2023/12/13 02:21:53;;;;;;;18.90;12.03;;;;;;;6.94;100.00;101058.84;2089993;28;20610;-64
2023/12/13 02:22:54;;;;;;;20.87;12.90;;;;;;;6.85;100.00;101050.97;2088117;28;20204;-64
2023/12/13 02:24:00;;;;;;;14.60;9.80;;;;;;;6.97;100.00;101074.59;2091303;28;20742;-64
2023/12/13 02:25:04;;;;;;;17.13;11.03;;;;;;;6.99;100.00;101069.44;2096559;28;20226;-63
2023/12/13 02:26:05;;;;;;;21.57;12.70;;;;;;;6.95;100.00;101063.16;2097233;28;20955;-64
2023/12/13 02:27:06;;;;;;;19.33;12.50;;;;;;;6.91;100.00;101060.41;2095670;28;20425;-63
2023/12/13 02:28:08;;;;;;;19.67;11.83;;;;;;;6.98;100.00;101051.34;2088351;28;20618;-63
2023/12/13 02:29:09;;;;;;;23.70;13.30;;;;;;;6.04;100.00;100915.41;2090157;28;20976;-63
2023/12/13 02:30:10;;;;;;;16.63;10.27;;;;;;;6.99;100.00;101053.72;2096999;28;20552;-63
2023/12/13 02:31:12;;;;;;;20.00;12.30;;;;;;;7.02;100.00;101052.13;2090788;28;20442;-63
2023/12/13 02:32:12;;;;;;;17.27;10.87;;;;;;;7.06;100.00;101050.94;2094955;28;20195;-63
2023/12/13 02:33:13;;;;;;;16.23;10.53;;;;;;;6.97;100.00;101027.75;2097445;28;20967;-63
2023/12/13 02:34:14;;;;;;;19.27;12.23;;;;;;;6.47;100.00;100957.44;2097621;28;20274;-63
2023/12/13 02:35:14;;;;;;;15.70;9.90;;;;;;;7.11;100.00;101066.25;2097812;28;20184;-64
2023/12/13 02:36:15;;;;;;;20.50;10.67;;;;;;;7.17;100.00;101059.19;2097837;28;20183;-63
2023/12/13 02:37:15;;;;;;;17.60;10.40;;;;;;;7.20;100.00;101061.91;2098493;28;20345;-64
2023/12/13 02:38:16;;;;;;;17.03;10.70;;;;;;;7.22;100.00;101069.78;2098153;28;20192;-63
2023/12/13 02:39:16;;;;;;;16.30;10.23;;;;;;;6.97;100.00;101028.50;2097790;28;20205;-64
2023/12/13 02:40:21;;;;;;;18.93;10.30;;;;;;;7.22;100.00;101069.78;2097074;28;20192;-63
2023/12/13 02:41:22;;;;;;;18.60;11.43;;;;;;;6.77;100.00;100999.84;2097670;28;20412;-65
2023/12/13 02:42:23;;;;;;;17.23;10.17;;;;;;;7.21;100.00;101063.47;2093539;28;20478;-63
2023/12/13 02:43:23;;;;;;;16.93;11.27;;;;;;;7.24;100.00;101065.47;2091842;28;20241;-64
2023/12/13 02:44:24;;;;;;;18.10;11.67;;;;;;;7.24;100.00;101068.22;2097561;28;20203;-63
2023/12/13 02:45:24;;;;;;;20.77;12.17;;;;;;;7.26;100.00;101063.06;2097273;28;20179;-64
2023/12/13 02:46:26;;;;;;;18.57;12.07;;;;;;;6.96;100.00;101012.38;2098118;28;20194;-63
2023/12/13 02:47:26;;;;;;;23.47;12.83;;;;;;;6.90;100.00;101001.00;2089764;28;20188;-64
2023/12/13 02:48:27;;;;;;;18.87;11.87;;;;;;;6.59;100.00;100940.47;2096345;28;20738;-63
2023/12/13 02:49:28;;;;;;;19.83;11.93;;;;;;;7.00;100.00;101011.19;2097360;28;20207;-64
2023/12/13 02:50:28;;;;;;;17.43;10.90;;;;;;;7.35;100.00;101062.66;2097384;28;20207;-64
2023/12/13 02:51:29;;;;;;;17.17;10.73;;;;;;;6.42;100.00;100911.81;2097719;28;20200;-63
2023/12/13 02:52:29;;;;;;;20.23;11.73;;;;;;;7.38;100.00;101070.91;2097399;28;20739;-64
2023/12/13 02:53:30;;;;;;;19.50;11.70;;;;;;;7.38;100.00;101061.84;2097213;28;20198;-63
2023/12/13 02:54:30;;;;;;;21.93;11.43;;;;;;;7.38;100.00;101067.38;2098232;28;20191;-63
2023/12/13 02:55:31;;;;;;;18.30;10.60;;;;;;;7.35;100.00;101062.66;2097591;28;20206;-64
2023/12/13 02:56:31;;;;;;;17.10;11.50;;;;;;;7.39;100.00;101061.44;2097759;28;20219;-63
2023/12/13 02:57:32;;;;;;;16.33;10.87;;;;;;;7.42;100.00;101066.16;2097492;28;20660;-64
2023/12/13 02:58:32;;;;;;;17.93;10.70;;;;;;;7.44;100.00;101058.25;2093386;28;20587;-64
2023/12/13 02:59:33;;;;;;;18.40;10.60;;;;;;;7.47;100.00;101059.44;2091685;28;20250;-63
2023/12/13 03:00:33;;;;;;;15.87;9.43;;;;;;;7.49;100.00;101062.59;2097392;28;20189;-64
2023/12/13 03:01:34;;;;;;;19.00;10.33;;;;;;;7.52;100.00;101059.03;2097338;28;20193;-64
2023/12/13 03:02:35;;;;;;;19.00;12.07;;;;;;;7.35;100.00;101035.88;2097718;28;20398;-63
2023/12/13 03:03:35;;;;;;;17.37;11.13;;;;;;;7.52;100.00;101054.31;2097487;28;20654;-65
2023/12/13 03:04:36;;;;;;;21.27;11.17;;;;;;;7.51;100.00;101057.44;2097859;28;20460;-64
2023/12/13 03:05:36;;;;;;;19.93;11.83;;;;;;;7.47;100.00;101042.88;2097340;28;20246;-65
2023/12/13 03:06:37;;;;;;;18.33;11.00;;;;;;;7.54;100.00;101056.66;2093283;28;20572;-63
2023/12/13 03:07:40;;;;;;;18.63;11.30;;;;;;;7.58;100.00;101055.44;2092475;28;20625;-64
2023/12/13 03:08:41;;;;;;;17.43;9.93;;;;;;;6.92;100.00;100945.50;2097623;28;20660;-63
2023/12/13 03:09:41;;;;;;;20.67;10.50;;;;;;;7.61;100.00;101042.81;2096931;28;20881;-64
2023/12/13 03:10:42;;;;;;;15.87;10.07;;;;;;;7.61;100.00;101034.56;2097600;28;20179;-63
2023/12/13 03:11:42;;;;;;;20.80;10.77;;;;;;;7.60;100.00;101020.00;2097631;28;20275;-63
2023/12/13 03:12:43;;;;;;;16.23;10.07;;;;;;;6.14;100.00;100799.06;2096305;28;20703;-64
2023/12/13 03:13:43;;;;;;;15.63;9.90;;;;;;;7.47;100.00;100988.53;2090782;28;20234;-64
2023/12/13 03:14:43;;;;;;;18.93;11.23;;;;;;;7.63;100.00;100999.09;2094105;28;20582;-63
2023/12/13 03:15:44;;;;;;;15.73;9.77;;;;;;;7.65;100.00;100999.47;2093364;28;20809;-64
2023/12/13 03:16:44;;;;;;;21.00;10.67;;;;;;;7.25;100.00;100942.19;2091152;28;20191;-63
2023/12/13 03:17:45;;;;;;;16.37;10.23;;;;;;;7.65;100.00;101002.22;2096468;28;20187;-63
2023/12/13 03:18:45;;;;;;;19.20;11.23;;;;;;;7.66;100.00;100993.56;2097536;28;20209;-64
2023/12/13 03:19:46;;;;;;;18.67;10.80;;;;;;;7.64;100.00;101004.19;2097577;28;20175;-63
2023/12/13 03:20:47;;;;;;;18.93;10.17;;;;;;;7.65;100.00;101000.25;2097828;28;20612;-63
2023/12/13 03:21:48;;;;;;;17.57;10.30;;;;;;;7.63;100.00;101008.13;2090792;28;20739;-65
2023/12/13 03:22:48;;;;;;;20.23;10.77;;;;;;;7.63;100.00;101023.91;2093744;28;20844;-64
2023/12/13 03:23:49;;;;;;;17.93;10.23;;;;;;;7.52;100.00;101012.94;2097206;28;20641;-64
2023/12/13 03:24:51;;;;;;;18.40;10.83;;;;;;;7.34;100.00;100984.66;2097585;28;20317;-63
2023/12/13 03:25:51;;;;;;;18.70;10.97;;;;;;;7.48;100.00;101008.63;2096824;28;20579;-63
2023/12/13 03:26:52;;;;;;;20.33;11.00;;;;;;;7.63;100.00;101026.69;2097417;28;20421;-63
2023/12/13 03:27:52;;;;;;;17.57;10.27;;;;;;;7.52;100.00;101023.97;2097815;28;20652;-64
2023/12/13 03:28:53;;;;;;;18.40;10.53;;;;;;;7.58;100.00;101027.88;2097572;28;20682;-63
2023/12/13 03:29:53;;;;;;;18.20;9.00;;;;;;;7.65;100.00;101049.13;2096989;28;20616;-63
2023/12/13 03:30:54;;;;;;;21.47;10.10;;;;;;;7.43;100.00;101028.34;2092628;28;20663;-64
2023/12/13 03:31:54;;;;;;;20.60;9.83;;;;;;;7.65;100.00;101052.66;2092424;28;20202;-64
2023/12/13 03:32:55;;;;;;;19.47;9.83;;;;;;;6.76;100.00;100931.41;2097168;28;20230;-64
2023/12/13 03:33:55;;;;;;;17.90;9.57;;;;;;;7.66;100.00;101065.28;2097037;28;20210;-64
2023/12/13 03:34:56;;;;;;;14.97;9.97;;;;;;;7.63;100.00;101063.31;2097405;28;20559;-63
2023/12/13 03:35:56;;;;;;;17.60;11.13;;;;;;;7.55;100.00;101055.47;2097499;28;20180;-64
2023/12/13 03:36:57;;;;;;;21.40;11.40;;;;;;;7.59;100.00;101057.00;2096445;28;20199;-64
2023/12/13 03:37:57;;;;;;;19.43;12.83;;;;;;;7.56;100.00;101057.84;2097327;28;20210;-63
2023/12/13 03:38:58;;;;;;;18.43;12.03;;;;;;;7.55;100.00;101061.78;2097644;28;20206;-63
2023/12/13 03:39:58;;;;;;;20.90;11.00;;;;;;;7.54;100.00;101056.66;2092940;28;20207;-64
2023/12/13 03:40:59;;;;;;;19.10;11.87;;;;;;;7.55;100.00;101060.97;2092153;28;20240;-63
2023/12/13 03:41:59;;;;;;;17.87;10.87;;;;;;;7.24;100.00;101010.31;2096093;28;20180;-64
2023/12/13 03:43:00;;;;;;;19.80;10.07;;;;;;;7.59;100.00;101047.97;2096167;28;20312;-64
2023/12/13 03:44:01;;;;;;;25.70;10.83;;;;;;;7.59;100.00;101048.75;2097719;28;20243;-64
2023/12/13 03:45:01;;;;;;;20.23;11.10;;;;;;;7.62;100.00;101044.41;2090088;28;20458;-64
2023/12/13 03:46:02;;;;;;;15.93;9.77;;;;;;;6.64;100.00;100890.50;2094918;28;20303;-64
2023/12/13 03:47:03;;;;;;;21.37;11.53;;;;;;;7.58;100.00;101027.09;2097545;28;20657;-63
2023/12/13 03:48:04;;;;;;;17.53;9.77;;;;;;;7.42;100.00;101002.75;2097235;28;20206;-63
2023/12/13 03:49:04;;;;;;;14.83;9.87;;;;;;;7.65;100.00;101016.81;2094044;28;20604;-63
2023/12/13 03:50:05;;;;;;;17.93;9.43;;;;;;;7.67;100.00;101016.38;2090353;28;20181;-63
2023/12/13 03:51:05;;;;;;;16.83;10.07;;;;;;;6.85;100.00;100879.41;2096573;28;20179;-64
2023/12/13 03:52:07;;;;;;;19.23;9.97;;;;;;;7.70;100.00;101001.81;2096787;28;20714;-64
2023/12/13 03:53:08;;;;;;;17.40;9.53;;;;;;;6.75;100.00;100849.94;2088913;28;20192;-64
2023/12/13 03:54:08;;;;;;;16.70;10.20;;;;;;;7.12;100.00;100900.50;2095394;28;20939;-64
2023/12/13 03:55:09;;;;;;;14.83;9.67;;;;;;;7.68;100.00;100968.34;2096913;28;20199;-63
2023/12/13 03:56:10;;;;;;;16.50;9.97;;;;;;;7.72;100.00;100975.38;2096034;28;20191;-63
2023/12/13 03:57:10;;;;;;;18.63;10.57;;;;;;;7.71;100.00;100982.09;2097257;28;20314;-63
2023/12/13 03:58:11;;;;;;;16.73;9.37;;;;;;;7.75;100.00;100987.59;2095142;28;20942;-64
2023/12/13 03:59:11;;;;;;;16.70;9.57;;;;;;;7.75;100.00;100982.84;2089523;28;20187;-63
2023/12/13 04:00:12;;;;;;;14.80;8.60;;;;;;;7.50;100.00;100945.59;2097571;28;20179;-64
2023/12/13 04:01:12;;;;;;;17.50;10.47;;;;;;;7.85;100.00;100995.00;2097413;28;20199;-63
2023/12/13 04:02:13;;;;;;;15.87;9.67;;;;;;;7.90;100.00;101000.88;2096904;28;20255;-64
2023/12/13 04:03:13;;;;;;;21.37;11.17;;;;;;;7.92;100.00;101001.25;2096112;28;20195;-63
2023/12/13 04:04:14;;;;;;;29.07;10.80;;;;;;;7.94;100.00;101001.63;2097325;28;20209;-63
2023/12/13 04:05:14;;;;;;;22.83;10.67;;;;;;;7.86;100.00;100972.53;2096814;28;20286;-63
2023/12/13 04:06:15;;;;;;;24.80;10.70;;;;;;;7.79;100.00;100966.28;2096319;28;20203;-64
2023/12/13 04:07:15;;;;;;;20.10;10.97;;;;;;;7.97;100.00;100976.00;2097057;28;20209;-64
2023/12/13 04:08:16;;;;;;;25.20;11.40;;;;;;;7.91;100.00;100958.31;2097692;28;20203;-64
2023/12/13 04:09:16;;;;;;;18.13;11.60;;;;;;;7.96;100.00;100966.16;2096798;28;20196;-63
2023/12/13 04:10:18;;;;;;;28.53;10.60;;;;;;;7.95;100.00;100967.31;2096897;28;20191;-64
2023/12/13 04:11:19;;;;;;;22.07;10.37;;;;;;;8.00;100.00;100975.16;2097165;28;20661;-63
2023/12/13 04:12:19;;;;;;;21.07;10.10;;;;;;;8.03;100.00;100977.13;2092390;28;20828;-63
2023/12/13 04:13:20;;;;;;;19.07;10.70;;;;;;;7.81;100.00;100941.81;2091376;28;20534;-64
2023/12/13 04:14:20;;;;;;;24.53;10.63;;;;;;;7.25;100.00;100859.50;2097208;28;20184;-64
2023/12/13 04:15:21;;;;;;;24.40;11.10;;;;;;;8.07;100.00;100999.16;2096939;28;20601;-63
2023/12/13 04:16:21;;;;;;;23.30;11.03;;;;;;;8.16;100.00;100988.47;2097665;28;20665;-64
2023/12/13 04:17:22;;;;;;;14.60;9.23;;;;;;;7.22;100.00;100841.78;2088380;28;20192;-63
2023/12/13 04:18:22;;;;;;;15.83;9.80;;;;;;;8.23;100.00;100993.94;2095619;28;20199;-64
2023/12/13 04:19:23;;;;;;;16.57;9.60;;;;;;;8.22;100.00;100997.91;2096774;28;20195;-63
2023/12/13 04:20:23;;;;;;;20.17;10.53;;;;;;;7.87;100.00;100932.72;2096705;28;20196;-63
2023/12/13 04:21:24;;;;;;;16.83;9.73;;;;;;;8.19;100.00;100996.72;2093456;28;20643;-63
2023/12/13 04:22:24;;;;;;;16.13;9.63;;;;;;;8.17;100.00;100995.53;2090073;28;20214;-63
2023/12/13 04:23:25;;;;;;;17.23;10.23;;;;;;;8.21;100.00;101010.91;2096098;28;20179;-64
2023/12/13 04:24:25;;;;;;;15.77;9.50;;;;;;;7.46;100.00;100898.72;2097600;28;20229;-64
2023/12/13 04:25:26;;;;;;;22.97;10.57;;;;;;;7.77;100.00;100949.31;2096905;28;20687;-63
2023/12/13 04:26:27;;;;;;;18.10;9.97;;;;;;;8.13;100.00;101009.38;2096596;28;20231;-63
2023/12/13 04:27:27;;;;;;;16.90;9.87;;;;;;;8.13;100.00;101011.34;2090388;28;20192;-63
2023/12/13 04:28:29;;;;;;;17.50;10.43;;;;;;;8.14;100.00;101005.41;2093142;28;20469;-63
2023/12/13 04:29:29;;;;;;;19.13;10.53;;;;;;;8.14;100.00;101002.66;2096851;28;20572;-64
2023/12/13 04:30:30;;;;;;;17.40;10.13;;;;;;;8.12;100.00;101001.50;2096498;28;20428;-63
2023/12/13 04:31:30;;;;;;;16.63;9.67;;;;;;;8.09;100.00;101007.84;2096851;28;20180;-64
2023/12/13 04:32:31;;;;;;;15.17;9.90;;;;;;;8.06;100.00;101009.44;2096958;28;20191;-63
2023/12/13 04:33:33;;;;;;;17.23;9.93;;;;;;;7.84;100.00;100974.91;2097071;28;20677;-63
2023/12/13 04:34:34;;;;;;;15.90;10.17;;;;;;;8.03;100.00;101004.72;2096467;28;20256;-63
2023/12/13 04:35:34;;;;;;;16.13;10.03;;;;;;;7.88;100.00;100991.41;2096441;28;20457;-63
2023/12/13 04:36:35;;;;;;;17.03;10.93;;;;;;;7.95;100.00;101000.44;2092199;28;20202;-64
2023/12/13 04:37:38;;;;;;;13.93;10.03;;;;;;;7.47;100.00;100930.63;2088325;28;20214;-63
2023/12/13 04:38:39;;;;;;;17.17;10.10;;;;;;;7.90;100.00;100989.81;2091473;28;20203;-63